Time;durP1;ratioP1;P1;durP2;ratioP2;P2;SDS_P1;SDS_P2;PMS_P1;PMS_P2;Temp;Humidity;BMP_temperature;BMP_pressure;BME280_temperature;BME280_humidity;BME280_pressure;Samples;Min_cycle;Max_cycle;Signal;HPM_P1;HPM_P2
2021/11/12 00:12:27;;;;;;;33.60;23.15;;;6.00;99.90;;;;;;5052850;28;20481;-60
2021/11/12 00:14:55;;;;;;;35.35;23.15;;;5.90;99.90;;;;;;5049631;28;20116;-62
2021/11/12 00:17:31;;;;;;;30.77;22.02;;;5.90;99.90;;;;;;5043489;28;20056;-61
2021/11/12 00:19:57;;;;;;;36.00;23.30;;;6.00;99.90;;;;;;5042134;28;20083;-61
2021/11/12 00:22:24;;;;;;;35.97;23.45;;;5.90;99.90;;;;;;5047728;28;20032;-60
2021/11/12 00:24:55;;;;;;;34.85;23.70;;;5.90;99.90;;;;;;5052569;28;20120;-62
2021/11/12 00:27:23;;;;;;;35.53;22.73;;;5.90;99.90;;;;;;5052771;28;20037;-58
2021/11/12 00:30:05;;;;;;;35.72;23.60;;;5.80;99.90;;;;;;5051295;28;20083;-60
2021/11/12 00:35:13;;;;;;;35.58;23.25;;;5.80;99.90;;;;;;5038264;28;20041;-62
2021/11/12 00:37:54;;;;;;;33.33;23.58;;;5.90;99.90;;;;;;5022316;28;20378;-61
2021/11/12 00:40:46;;;;;;;39.10;24.85;;;5.90;99.90;;;;;;5037207;28;20049;-62
2021/11/12 00:43:15;;;;;;;33.58;23.80;;;5.90;99.90;;;;;;5037258;28;20029;-59
2021/11/12 00:45:56;;;;;;;34.38;23.92;;;6.00;99.90;;;;;;5036619;28;20128;-60
2021/11/12 00:48:25;;;;;;;40.83;24.23;;;6.00;99.90;;;;;;5036583;28;20452;-59
2021/11/12 00:50:59;;;;;;;41.28;26.17;;;6.00;99.90;;;;;;5054704;28;20439;-60
2021/11/12 00:55:50;;;;;;;40.78;24.17;;;6.00;99.90;;;;;;5056676;28;20029;-59
2021/11/12 00:58:16;;;;;;;39.88;24.02;;;6.00;99.90;;;;;;5056389;28;20040;-60
2021/11/12 01:00:43;;;;;;;41.95;25.30;;;6.10;99.90;;;;;;5056100;28;20039;-61
2021/11/12 01:03:10;;;;;;;44.15;25.52;;;6.00;99.90;;;;;;5051262;28;20037;-63
2021/11/12 01:05:36;;;;;;;35.72;23.95;;;6.10;99.90;;;;;;5035881;28;20053;-61
2021/11/12 01:08:03;;;;;;;39.95;24.38;;;6.10;99.90;;;;;;5036212;28;20567;-59
2021/11/12 01:10:30;;;;;;;41.97;24.67;;;6.10;99.90;;;;;;5036202;28;20040;-62
2021/11/12 01:12:59;;;;;;;41.58;25.27;;;6.20;99.90;;;;;;5037040;28;20036;-59
2021/11/12 01:15:25;;;;;;;39.80;25.50;;;6.20;99.90;;;;;;5037495;28;20033;-60
2021/11/12 01:17:51;;;;;;;42.10;24.60;;;6.10;99.90;;;;;;5055602;28;20157;-61
2021/11/12 01:20:19;;;;;;;38.22;24.48;;;6.20;99.90;;;;;;5055577;28;20201;-59
2021/11/12 01:22:47;;;;;;;44.97;25.58;;;6.10;99.90;;;;;;5055416;28;20032;-59
2021/11/12 01:25:16;;;;;;;41.38;24.60;;;6.20;99.90;;;;;;5055652;28;20040;-61
2021/11/12 01:27:43;;;;;;;41.92;25.02;;;6.10;99.90;;;;;;5055926;28;20035;-61
2021/11/12 01:30:11;;;;;;;47.70;26.52;;;6.10;99.90;;;;;;5055501;28;20041;-61
2021/11/12 01:32:37;;;;;;;48.08;24.88;;;6.20;99.90;;;;;;5054829;28;20029;-59
2021/11/12 01:35:04;;;;;;;48.88;26.27;;;6.20;99.90;;;;;;5055341;28;20403;-58
2021/11/12 01:37:31;;;;;;;49.65;26.23;;;6.10;99.90;;;;;;5055606;28;20024;-61
2021/11/12 01:40:00;;;;;;;52.83;27.10;;;6.10;99.90;;;;;;5055335;28;20055;-58
2021/11/12 01:42:48;;;;;;;48.78;25.70;;;6.00;99.90;;;;;;5055498;28;20052;-62
2021/11/12 01:45:14;;;;;;;45.88;25.15;;;6.10;99.90;;;;;;5055194;28;20397;-58
2021/11/12 01:50:26;;;;;;;56.05;26.80;;;5.90;99.90;;;;;;5047622;28;20030;-57
2021/11/12 01:52:56;;;;;;;61.75;27.95;;;5.80;99.90;;;;;;5033997;28;20061;-61
2021/11/12 02:00:42;;;;;;;65.07;27.67;;;5.80;99.90;;;;;;5034177;28;20040;-60
2021/11/12 02:03:09;;;;;;;63.75;29.95;;;5.80;99.90;;;;;;5034705;28;20032;-58
2021/11/12 02:05:35;;;;;;;60.20;27.38;;;5.80;99.90;;;;;;5033980;28;20033;-59
2021/11/12 02:08:01;;;;;;;61.45;27.10;;;5.80;99.90;;;;;;5035251;28;20366;-60
2021/11/12 02:10:27;;;;;;;56.80;28.23;;;5.80;99.90;;;;;;5034337;28;20500;-60
2021/11/12 02:15:20;;;;;;;58.45;28.08;;;5.80;99.90;;;;;;5052761;28;20048;-60
2021/11/12 02:17:53;;;;;;;56.25;26.38;;;5.90;99.90;;;;;;5052758;28;20056;-59
2021/11/12 02:20:25;;;;;;;61.25;27.88;;;5.90;99.90;;;;;;5054533;28;20032;-61
2021/11/12 02:22:57;;;;;;;57.65;29.58;;;5.90;99.90;;;;;;5055105;28;20021;-61
2021/11/12 02:25:28;;;;;;;65.13;30.48;;;6.00;99.90;;;;;;5054525;28;20060;-61
2021/11/12 02:27:57;;;;;;;57.33;29.63;;;6.00;99.90;;;;;;5054191;28;20040;-58
2021/11/12 02:30:29;;;;;;;63.42;28.17;;;6.10;99.90;;;;;;5051455;28;20041;-55
2021/11/12 02:33:04;;;;;;;60.65;29.02;;;6.00;99.90;;;;;;5047096;28;20547;-59
2021/11/12 02:35:31;;;;;;;62.50;28.52;;;6.00;99.90;;;;;;5053575;28;20037;-60
2021/11/12 02:38:03;;;;;;;55.10;25.73;;;6.00;99.90;;;;;;5053461;28;20036;-59
2021/11/12 02:40:29;;;;;;;58.83;28.65;;;6.00;99.90;;;;;;5053049;28;20025;-59
2021/11/12 02:42:54;;;;;;;70.10;30.10;;;6.00;99.90;;;;;;5053194;28;20436;-61
2021/11/12 02:45:21;;;;;;;68.78;31.08;;;6.00;99.90;;;;;;5051785;28;20057;-60
2021/11/12 02:47:47;;;;;;;68.10;30.67;;;6.00;99.90;;;;;;5048432;28;20091;-61
2021/11/12 02:50:18;;;;;;;64.88;28.85;;;5.90;99.90;;;;;;5053106;28;20079;-61
2021/11/12 02:52:45;;;;;;;68.47;30.52;;;6.00;99.90;;;;;;5050729;28;20491;-61
2021/11/12 02:55:11;;;;;;;73.72;31.38;;;5.90;99.90;;;;;;5045854;28;20041;-59
2021/11/12 02:57:37;;;;;;;74.88;32.25;;;5.90;99.90;;;;;;5043118;28;20049;-60
2021/11/12 03:00:06;;;;;;;76.80;31.77;;;5.90;99.90;;;;;;5033812;28;20161;-57
2021/11/12 03:02:32;;;;;;;73.70;31.35;;;5.80;99.90;;;;;;5044203;28;20029;-59
2021/11/12 03:04:58;;;;;;;69.65;31.13;;;5.90;99.90;;;;;;5053761;28;20029;-58
2021/11/12 03:07:24;;;;;;;63.42;30.15;;;5.90;99.90;;;;;;5053774;28;20089;-60
2021/11/12 03:09:50;;;;;;;64.72;31.65;;;6.00;99.90;;;;;;5053641;28;20021;-61
2021/11/12 03:12:16;;;;;;;72.68;32.28;;;6.00;99.90;;;;;;5053559;28;20056;-60
2021/11/12 03:14:42;;;;;;;72.20;32.35;;;6.00;99.90;;;;;;5053426;28;20058;-60
2021/11/12 03:17:08;;;;;;;72.70;29.90;;;6.00;99.90;;;;;;5053130;28;20040;-59
2021/11/12 03:19:34;;;;;;;68.70;31.15;;;6.00;99.90;;;;;;5052318;28;20040;-61
2021/11/12 03:22:11;;;;;;;72.07;30.98;;;6.00;99.90;;;;;;5052249;28;20065;-60
2021/11/12 03:24:40;;;;;;;61.03;30.00;;;6.00;99.90;;;;;;5046582;28;20025;-59
2021/11/12 04:05:05;;;;;;;77.05;32.85;;;5.80;99.90;;;;;;5052486;28;20127;-61
2021/11/12 04:18:54;;;;;;;92.53;34.95;;;5.80;99.90;;;;;;5055661;28;20502;-58
2021/11/12 04:21:38;;;;;;;90.72;34.28;;;5.80;99.90;;;;;;5056255;28;20123;-59
2021/11/12 04:30:40;;;;;;;86.15;35.08;;;5.80;99.90;;;;;;5057127;28;20033;-59
2021/11/12 05:03:14;;;;;;;93.17;36.53;;;5.70;99.90;;;;;;5056336;28;20040;-61
2021/11/12 05:11:10;;;;;;;92.10;39.22;;;5.80;99.90;;;;;;5056084;28;20029;-62
2021/11/12 05:43:48;;;;;;;61.67;26.80;;;5.40;99.90;;;;;;5055545;28;20036;-60
2021/11/12 05:46:18;;;;;;;58.70;25.83;;;5.40;99.90;;;;;;5055321;28;20561;-62
2021/11/12 05:51:36;;;;;;;57.50;25.77;;;5.40;99.90;;;;;;5055167;28;20025;-58
2021/11/12 05:56:49;;;;;;;62.65;27.38;;;5.30;99.90;;;;;;5054336;28;20476;-60
2021/11/12 05:59:16;;;;;;;73.45;35.05;;;5.20;99.90;;;;;;5054845;28;20088;-62
2021/11/12 06:01:43;;;;;;;68.88;28.75;;;5.20;99.90;;;;;;5055026;28;20140;-62
2021/11/12 06:04:10;;;;;;;63.22;26.83;;;5.10;99.90;;;;;;5054947;28;20120;-62
2021/11/12 06:06:35;;;;;;;70.78;28.05;;;5.10;99.90;;;;;;5054459;28;20477;-61
2021/11/12 06:09:02;;;;;;;59.65;26.02;;;4.90;99.90;;;;;;5054361;28;20037;-64
2021/11/12 06:11:28;;;;;;;61.03;26.55;;;5.00;99.90;;;;;;5054372;28;20036;-59
2021/11/12 06:13:56;;;;;;;67.63;31.00;;;5.10;99.90;;;;;;5054719;28;20025;-61
2021/11/12 06:16:22;;;;;;;69.70;31.08;;;5.10;99.90;;;;;;5054368;28;20052;-62
2021/11/12 06:18:48;;;;;;;61.92;28.83;;;5.10;99.90;;;;;;5057067;28;20028;-62
2021/11/12 06:21:13;;;;;;;59.53;28.48;;;5.10;99.90;;;;;;5060719;28;20059;-62
2021/11/12 06:23:40;;;;;;;55.05;23.88;;;5.00;99.90;;;;;;5062250;28;20033;-62
2021/11/12 06:26:07;;;;;;;51.20;25.05;;;4.90;99.90;;;;;;5058377;28;20086;-60
2021/11/12 06:28:33;;;;;;;50.40;24.02;;;4.80;99.90;;;;;;5056123;28;20040;-62
2021/11/12 06:31:00;;;;;;;57.60;26.77;;;4.70;99.90;;;;;;5040069;28;20036;-62
2021/11/12 06:33:26;;;;;;;52.78;24.77;;;4.70;99.90;;;;;;5055278;28;20033;-60
2021/11/12 06:35:52;;;;;;;53.15;26.98;;;4.70;99.90;;;;;;5053983;28;20040;-60
2021/11/12 06:38:21;;;;;;;59.92;27.92;;;4.80;99.90;;;;;;5052489;28;20147;-61
2021/11/12 06:40:47;;;;;;;63.08;28.42;;;4.80;99.90;;;;;;5054007;28;20036;-61
2021/11/12 06:43:29;;;;;;;58.35;25.75;;;4.80;99.90;;;;;;5055141;28;20059;-62
2021/11/12 06:51:24;;;;;;;77.10;31.08;;;4.50;99.90;;;;;;5052800;28;20112;-61
2021/11/12 06:53:52;;;;;;;65.55;28.52;;;4.50;99.90;;;;;;5054028;28;20114;-60
2021/11/12 06:56:19;;;;;;;56.22;28.17;;;4.50;99.90;;;;;;5054103;28;20036;-59
2021/11/12 06:58:46;;;;;;;60.88;28.23;;;4.50;99.90;;;;;;5053867;28;20032;-60
2021/11/12 07:01:11;;;;;;;48.60;23.27;;;4.50;99.90;;;;;;5053801;28;20464;-61
2021/11/12 07:03:37;;;;;;;49.40;23.90;;;4.50;99.90;;;;;;5054518;28;20083;-61
2021/11/12 07:06:03;;;;;;;46.78;23.52;;;4.50;99.90;;;;;;5053702;28;20029;-61
2021/11/12 07:08:29;;;;;;;49.20;24.27;;;4.50;99.90;;;;;;5054242;28;20090;-59
2021/11/12 07:10:57;;;;;;;43.83;22.77;;;4.50;99.90;;;;;;5054132;28;20029;-62
2021/11/12 07:13:28;;;;;;;54.92;25.23;;;4.40;99.90;;;;;;5053563;28;20041;-62
2021/11/12 07:15:56;;;;;;;65.53;28.20;;;4.30;99.90;;;;;;5051534;28;20029;-62
2021/11/12 07:18:25;;;;;;;47.75;26.33;;;4.30;99.90;;;;;;5053032;28;20107;-62
2021/11/12 07:20:51;;;;;;;59.40;26.40;;;4.20;99.90;;;;;;5053297;28;20033;-60
2021/11/12 07:23:23;;;;;;;53.63;29.65;;;4.20;99.90;;;;;;5052394;28;20048;-60
2021/11/12 07:25:50;;;;;;;62.03;24.17;;;4.20;99.90;;;;;;5053933;28;20064;-60
2021/11/12 07:28:16;;;;;;;49.15;22.50;;;4.00;99.90;;;;;;5054469;28;20292;-59
2021/11/12 07:30:42;;;;;;;50.38;24.02;;;4.10;99.90;;;;;;5054302;28;20017;-61
2021/11/12 07:33:11;;;;;;;53.92;24.30;;;4.10;99.90;;;;;;5047309;28;20031;-59
2021/11/12 07:35:44;;;;;;;48.35;23.80;;;4.20;99.90;;;;;;5054287;28;20438;-60
2021/11/12 07:38:18;;;;;;;46.75;23.88;;;4.30;99.90;;;;;;5051595;28;20053;-61
2021/11/12 07:48:32;;;;;;;46.22;21.77;;;4.20;99.90;;;;;;5033343;28;20025;-62
2021/11/12 07:50:58;;;;;;;44.38;21.77;;;4.20;99.90;;;;;;5032180;28;20022;-62
2021/11/12 07:53:25;;;;;;;38.53;21.33;;;4.20;99.90;;;;;;5038527;28;20444;-63
2021/11/12 07:55:53;;;;;;;50.90;22.00;;;4.20;99.90;;;;;;5052161;28;20448;-62
2021/11/12 07:58:20;;;;;;;52.65;23.58;;;4.10;99.90;;;;;;5052721;28;20500;-62
2021/11/12 08:00:47;;;;;;;40.13;22.75;;;4.10;99.90;;;;;;5052350;28;20040;-59
2021/11/12 08:03:14;;;;;;;43.85;24.80;;;4.20;99.90;;;;;;5053337;28;20546;-59
2021/11/12 08:05:44;;;;;;;44.08;21.92;;;4.30;99.90;;;;;;5052729;28;20033;-62
2021/11/12 08:08:12;;;;;;;54.63;23.00;;;4.30;99.90;;;;;;5053639;28;20093;-62
2021/11/12 08:10:48;;;;;;;41.72;22.27;;;4.10;99.90;;;;;;5052947;28;20508;-62
2021/11/12 08:13:24;;;;;;;44.75;22.02;;;4.00;99.90;;;;;;5053203;28;20029;-58
2021/11/12 08:21:23;;;;;;;42.15;20.80;;;4.00;99.90;;;;;;5053040;28;20056;-58
2021/11/12 08:23:59;;;;;;;38.13;21.25;;;4.10;99.90;;;;;;5061697;28;20044;-62
2021/11/12 08:38:48;;;;;;;44.38;20.70;;;4.30;99.90;;;;;;5052190;28;20037;-60
2021/11/12 08:41:16;;;;;;;38.45;21.70;;;4.30;99.90;;;;;;5052202;28;20033;-60
2021/11/12 08:43:54;;;;;;;45.33;22.05;;;4.30;99.90;;;;;;5053265;28;20039;-64
2021/11/12 08:46:28;;;;;;;42.63;23.85;;;4.40;99.90;;;;;;5050387;28;20037;-60
2021/11/12 08:49:01;;;;;;;39.30;21.52;;;4.50;99.90;;;;;;5052893;28;20029;-63
2021/11/12 08:51:33;;;;;;;56.60;21.92;;;4.50;99.90;;;;;;5052043;28;20087;-63
2021/11/12 08:54:01;;;;;;;53.28;22.70;;;4.40;99.90;;;;;;5066976;28;20104;-63
2021/11/12 08:56:27;;;;;;;35.83;20.77;;;4.20;99.90;;;;;;5051262;28;20037;-63
2021/11/12 08:58:53;;;;;;;43.25;23.60;;;4.20;99.90;;;;;;5044931;28;20040;-62
2021/11/12 09:01:19;;;;;;;46.40;22.55;;;4.30;99.90;;;;;;5056517;28;20025;-64
2021/11/12 09:03:46;;;;;;;39.03;22.40;;;4.40;99.90;;;;;;5038171;28;20038;-62
2021/11/12 09:06:11;;;;;;;41.22;23.25;;;4.50;99.90;;;;;;5054384;28;20086;-59
2021/11/12 09:08:37;;;;;;;44.15;23.90;;;4.60;99.90;;;;;;5055449;28;20120;-61
2021/11/12 09:11:08;;;;;;;40.35;21.88;;;4.60;99.90;;;;;;5056132;28;20037;-66
2021/11/12 09:13:49;;;;;;;40.58;23.00;;;4.70;99.90;;;;;;5038754;28;20385;-62
2021/11/12 09:16:16;;;;;;;41.05;22.20;;;4.90;99.90;;;;;;5055748;28;20036;-62
2021/11/12 09:18:48;;;;;;;42.67;23.55;;;5.00;99.90;;;;;;5055702;28;20488;-61
2021/11/12 09:21:15;;;;;;;45.40;24.73;;;5.10;99.90;;;;;;5054576;28;20481;-62
2021/11/12 09:23:41;;;;;;;44.00;25.73;;;5.10;99.90;;;;;;5054631;28;20044;-62
2021/11/12 09:26:09;;;;;;;46.78;26.92;;;5.10;99.90;;;;;;5056096;28;20045;-61
2021/11/12 09:28:35;;;;;;;45.45;26.60;;;5.10;99.90;;;;;;5055885;28;20056;-61
2021/11/12 09:31:03;;;;;;;46.60;27.60;;;5.10;99.90;;;;;;5054898;28;20525;-61
2021/11/12 09:33:29;;;;;;;42.15;24.55;;;5.10;99.90;;;;;;5055273;28;20453;-59
2021/11/12 09:35:55;;;;;;;41.45;25.60;;;5.10;99.90;;;;;;5055639;28;20115;-61
2021/11/12 09:38:21;;;;;;;43.88;27.25;;;5.00;99.90;;;;;;5055813;28;20096;-61
2021/11/12 09:40:46;;;;;;;49.70;25.70;;;5.00;99.90;;;;;;5055211;28;20065;-62
2021/11/12 09:43:12;;;;;;;39.47;24.27;;;4.80;99.90;;;;;;5054173;28;20045;-60
2021/11/12 09:45:39;;;;;;;44.15;24.83;;;4.90;99.90;;;;;;5054847;28;20029;-61
2021/11/12 09:48:07;;;;;;;45.22;26.48;;;4.90;99.90;;;;;;5055237;28;20033;-63
2021/11/12 09:50:33;;;;;;;44.60;26.25;;;5.10;99.90;;;;;;5055640;28;20021;-60
2021/11/12 09:52:59;;;;;;;44.92;26.50;;;5.20;99.90;;;;;;5054649;28;20507;-60
2021/11/12 09:55:26;;;;;;;49.78;26.77;;;5.20;99.90;;;;;;5055182;28;20052;-61
2021/11/12 09:57:52;;;;;;;47.63;28.95;;;5.20;99.90;;;;;;5053629;28;20406;-61
2021/11/12 10:00:23;;;;;;;54.33;28.45;;;5.20;99.90;;;;;;5055085;28;20540;-62
2021/11/12 10:02:50;;;;;;;54.20;27.67;;;5.10;99.90;;;;;;5055661;28;20519;-60
2021/11/12 10:05:30;;;;;;;51.33;27.83;;;4.90;99.90;;;;;;5037729;28;20033;-63
2021/11/12 10:07:57;;;;;;;45.55;26.90;;;4.80;99.90;;;;;;5034637;28;20040;-62
2021/11/12 10:10:24;;;;;;;49.55;29.98;;;4.80;99.90;;;;;;5034378;28;20477;-61
2021/11/12 10:12:51;;;;;;;46.50;28.15;;;4.90;99.90;;;;;;5035140;28;20025;-61
2021/11/12 10:15:19;;;;;;;47.35;28.50;;;4.90;99.90;;;;;;5035414;28;20037;-62
2021/11/12 10:17:47;;;;;;;49.20;27.88;;;4.90;99.90;;;;;;5045108;28;20059;-61
2021/11/12 10:20:17;;;;;;;51.15;28.13;;;4.90;99.90;;;;;;5054437;28;20056;-58
2021/11/12 10:22:45;;;;;;;49.35;29.50;;;4.80;99.90;;;;;;5054119;28;20477;-62
2021/11/12 10:25:12;;;;;;;56.35;30.33;;;4.70;99.90;;;;;;5034603;28;20547;-61
2021/11/12 10:27:43;;;;;;;52.88;30.85;;;4.70;99.90;;;;;;5034517;28;20571;-60
2021/11/12 10:30:13;;;;;;;44.83;29.35;;;4.80;99.90;;;;;;5034125;28;20030;-62
2021/11/12 10:32:40;;;;;;;42.05;27.17;;;4.70;99.90;;;;;;5034320;28;20678;-62
2021/11/12 10:35:28;;;;;;;42.83;27.35;;;4.80;99.90;;;;;;5033265;28;20511;-61
2021/11/12 10:38:07;;;;;;;45.35;30.17;;;4.90;99.90;;;;;;5049426;28;20033;-61
2021/11/12 10:40:33;;;;;;;38.22;26.38;;;5.00;99.90;;;;;;5055311;28;20044;-61
2021/11/12 10:42:59;;;;;;;44.80;26.30;;;5.00;99.90;;;;;;5054623;28;20029;-58
2021/11/12 10:45:31;;;;;;;42.45;27.52;;;4.90;99.90;;;;;;5054419;28;20684;-59
2021/11/12 10:48:03;;;;;;;39.80;28.75;;;4.80;99.90;;;;;;5054403;28;20039;-61
2021/11/12 10:50:31;;;;;;;44.88;28.65;;;4.70;99.90;;;;;;5053326;28;20033;-63
2021/11/12 10:53:05;;;;;;;49.53;27.35;;;4.60;99.90;;;;;;5054217;28;20025;-60
2021/11/12 10:55:31;;;;;;;47.15;27.10;;;4.60;99.90;;;;;;5055188;28;20072;-58
2021/11/12 10:58:03;;;;;;;43.75;28.70;;;4.60;99.90;;;;;;5054102;28;20115;-59
2021/11/12 11:00:37;;;;;;;45.83;28.38;;;4.60;99.90;;;;;;5053620;28;20052;-62
2021/11/12 11:03:20;;;;;;;54.75;28.50;;;4.60;99.90;;;;;;5044273;28;20442;-63
2021/11/12 11:06:02;;;;;;;40.22;25.92;;;4.70;99.90;;;;;;5051552;28;20527;-62
2021/11/12 11:08:34;;;;;;;35.63;25.85;;;4.80;99.90;;;;;;5053191;28;20485;-59
2021/11/12 11:11:04;;;;;;;51.20;27.20;;;4.90;99.90;;;;;;5062913;28;20028;-62
2021/11/12 11:13:33;;;;;;;42.67;28.33;;;5.00;99.90;;;;;;5056084;28;20048;-63
2021/11/12 11:16:05;;;;;;;38.83;26.67;;;4.90;99.90;;;;;;5063946;28;20558;-60
2021/11/12 11:18:44;;;;;;;41.72;29.45;;;4.90;99.90;;;;;;5060744;28;20123;-62
2021/11/12 11:23:52;;;;;;;45.13;28.75;;;4.90;99.90;;;;;;5060219;28;20110;-61
2021/11/12 11:26:22;;;;;;;41.80;28.52;;;5.00;99.90;;;;;;5073097;28;20498;-61
2021/11/12 11:28:50;;;;;;;44.20;28.58;;;5.10;99.90;;;;;;5073072;28;20041;-60
2021/11/12 11:31:18;;;;;;;43.47;29.92;;;5.20;99.90;;;;;;5070566;28;20131;-61
2021/11/12 11:33:46;;;;;;;47.97;30.90;;;5.20;99.90;;;;;;5053368;28;20033;-61
2021/11/12 11:36:18;;;;;;;51.05;33.50;;;5.30;99.90;;;;;;5052944;28;20492;-60
2021/11/12 11:38:44;;;;;;;58.00;33.47;;;5.10;99.90;;;;;;5054253;28;20037;-60
2021/11/12 11:41:15;;;;;;;47.60;31.70;;;5.00;99.90;;;;;;5056897;28;20112;-61
2021/11/12 11:43:45;;;;;;;58.88;32.03;;;5.10;99.90;;;;;;5062768;28;20060;-59
2021/11/12 11:46:22;;;;;;;48.30;33.28;;;5.20;99.90;;;;;;5066099;28;20029;-63
2021/11/12 11:48:51;;;;;;;45.45;30.15;;;5.20;99.90;;;;;;5054288;28;20040;-64
2021/11/12 11:51:35;;;;;;;42.05;28.13;;;5.20;99.90;;;;;;5057405;28;20032;-60
2021/11/12 11:54:12;;;;;;;39.47;28.65;;;5.30;99.90;;;;;;5061480;28;20032;-63
2021/11/12 11:56:46;;;;;;;44.22;30.10;;;5.30;99.90;;;;;;5069201;28;20036;-61
2021/11/12 11:59:34;;;;;;;42.22;28.77;;;5.30;99.90;;;;;;5055444;28;20048;-62
2021/11/12 12:02:03;;;;;;;42.85;29.30;;;5.30;99.90;;;;;;5063279;28;20055;-61
2021/11/12 12:04:49;;;;;;;42.00;28.98;;;5.10;99.90;;;;;;5068269;28;20114;-61
2021/11/12 12:07:19;;;;;;;41.35;28.45;;;5.20;99.90;;;;;;5032890;28;20029;-60
2021/11/12 12:10:06;;;;;;;42.33;28.13;;;5.20;99.90;;;;;;5045252;28;20148;-61
2021/11/12 12:12:35;;;;;;;39.15;29.10;;;5.20;99.90;;;;;;5059023;28;20037;-61
2021/11/12 12:15:01;;;;;;;44.33;30.80;;;5.20;99.90;;;;;;5070006;28;20037;-58
2021/11/12 12:17:27;;;;;;;47.58;31.27;;;5.30;99.90;;;;;;5071247;28;20075;-61
2021/11/12 12:20:05;;;;;;;51.83;34.05;;;5.20;99.90;;;;;;5071313;28;20104;-60
2021/11/12 12:31:30;;;;;;;49.72;32.70;;;4.90;99.90;;;;;;5049888;28;20032;-60
2021/11/12 12:35:08;;;;;;;51.50;32.40;;;4.80;99.90;;;;;;5041902;28;20025;-62
2021/11/12 13:22:57;;;;;;;62.78;38.65;;;5.10;99.90;;;;;;5051889;28;20075;-60
2021/11/12 13:25:36;;;;;;;61.75;39.05;;;5.10;99.90;;;;;;5054820;28;20381;-58
2021/11/12 13:28:17;;;;;;;65.13;38.97;;;5.20;99.90;;;;;;5035514;28;20044;-63
2021/11/12 13:31:11;;;;;;;61.83;37.13;;;5.20;99.90;;;;;;5035036;28;20508;-57
2021/11/12 13:33:41;;;;;;;65.20;39.35;;;5.20;99.90;;;;;;5035576;28;20065;-61
2021/11/12 13:36:23;;;;;;;65.88;40.42;;;5.20;99.90;;;;;;5035284;28;20044;-60
2021/11/12 13:39:07;;;;;;;65.13;39.22;;;5.20;99.90;;;;;;5033543;28;20171;-62
2021/11/12 13:41:39;;;;;;;66.55;40.83;;;5.20;99.90;;;;;;5034800;28;20029;-58
2021/11/12 13:44:11;;;;;;;68.28;41.20;;;5.20;99.90;;;;;;5034296;28;20478;-58
2021/11/12 13:47:03;;;;;;;65.35;38.78;;;5.30;99.90;;;;;;5035096;28;20358;-60
2021/11/12 13:49:36;;;;;;;65.35;38.95;;;5.30;99.90;;;;;;5034529;28;20370;-60
2021/11/12 13:52:08;;;;;;;64.32;40.90;;;5.30;99.90;;;;;;5039278;28;20056;-59
2021/11/12 13:54:41;;;;;;;68.95;41.10;;;5.20;99.90;;;;;;5056012;28;20029;-61
2021/11/12 13:57:17;;;;;;;67.00;42.63;;;5.10;99.90;;;;;;5055365;28;20029;-59
2021/11/12 13:59:59;;;;;;;63.33;39.05;;;5.10;99.90;;;;;;5054196;28;20048;-59
2021/11/12 14:02:29;;;;;;;66.88;39.08;;;5.20;99.90;;;;;;5052900;28;20083;-62
2021/11/12 14:05:11;;;;;;;71.47;41.15;;;5.30;99.90;;;;;;5048539;28;20033;-58
2021/11/12 14:07:38;;;;;;;70.45;42.42;;;5.40;99.90;;;;;;5043356;28;20067;-59
2021/11/12 14:10:07;;;;;;;72.43;41.63;;;5.30;99.90;;;;;;5033366;28;20040;-58
2021/11/12 14:12:33;;;;;;;76.45;45.38;;;5.30;99.90;;;;;;5048881;28;20039;-61
2021/11/12 14:15:17;;;;;;;78.03;43.28;;;5.30;99.90;;;;;;5052837;28;20033;-61
2021/11/12 14:18:01;;;;;;;69.75;41.67;;;5.40;99.90;;;;;;5053812;28;20054;-61
2021/11/12 14:20:29;;;;;;;80.88;44.47;;;5.50;99.90;;;;;;5048126;28;20404;-60
2021/11/12 14:23:19;;;;;;;87.63;51.00;;;5.50;99.90;;;;;;5054025;28;20040;-62
2021/11/12 14:29:07;;;;;;;82.93;45.92;;;5.50;99.90;;;;;;5031070;28;20037;-61
2021/11/12 14:36:38;;;;;;;78.88;45.92;;;5.50;99.90;;;;;;5051808;28;20053;-61
2021/11/12 14:39:47;;;;;;;81.07;45.75;;;5.60;99.90;;;;;;5034078;28;20030;-59
2021/11/12 14:45:25;;;;;;;79.32;45.28;;;5.60;99.90;;;;;;5034209;28;20223;-59
2021/11/12 14:50:42;;;;;;;78.63;46.67;;;5.50;99.90;;;;;;5033380;28;20036;-61
2021/11/12 14:55:51;;;;;;;83.93;48.75;;;5.50;99.90;;;;;;5053676;28;20033;-62
2021/11/12 14:58:18;;;;;;;82.45;49.17;;;5.50;99.90;;;;;;5052602;28;20029;-61
2021/11/12 15:00:46;;;;;;;83.38;48.00;;;5.60;99.90;;;;;;5042506;28;20026;-62
2021/11/12 15:03:12;;;;;;;88.50;49.47;;;5.50;99.90;;;;;;5034042;28;20029;-61
2021/11/12 15:05:39;;;;;;;85.18;47.10;;;5.50;99.90;;;;;;5067989;28;20451;-60
2021/11/12 15:10:37;;;;;;;83.63;46.45;;;5.50;99.90;;;;;;5051844;28;20033;-61
2021/11/12 15:13:03;;;;;;;84.35;50.03;;;5.40;99.90;;;;;;5052774;28;20033;-58
2021/11/12 15:15:29;;;;;;;81.28;47.63;;;5.40;99.90;;;;;;5053368;28;20033;-61
2021/11/12 15:17:55;;;;;;;80.82;46.78;;;5.40;99.90;;;;;;5051307;28;21351;-61
2021/11/12 15:20:21;;;;;;;81.07;48.92;;;5.40;99.90;;;;;;5047929;28;20041;-60
2021/11/12 15:28:13;;;;;;;91.55;50.67;;;5.50;99.90;;;;;;5051513;28;20025;-61
2021/11/12 15:30:53;;;;;;;82.50;48.42;;;5.50;99.90;;;;;;5048948;28;20029;-62
2021/11/12 15:33:20;;;;;;;80.57;47.65;;;5.50;99.90;;;;;;5051921;28;20037;-59
2021/11/12 15:35:47;;;;;;;80.32;46.00;;;5.50;99.90;;;;;;5046337;28;20022;-60
2021/11/12 15:38:23;;;;;;;82.90;47.88;;;5.50;99.90;;;;;;5039326;28;20020;-69
2021/11/12 15:41:00;;;;;;;88.95;49.30;;;5.60;99.90;;;;;;5051021;28;20037;-59
2021/11/12 15:43:28;;;;;;;79.40;49.38;;;5.50;99.90;;;;;;5052277;28;20127;-57
2021/11/12 15:46:06;;;;;;;86.80;48.25;;;5.40;99.90;;;;;;5051933;28;20087;-57
2021/11/12 15:48:38;;;;;;;82.57;46.15;;;5.30;99.90;;;;;;5052104;28;20021;-57
2021/11/12 15:54:26;;;;;;;90.55;50.80;;;5.30;99.90;;;;;;5032709;28;20425;-60
2021/11/12 15:57:07;;;;;;;82.25;47.17;;;5.30;99.90;;;;;;5032016;28;20037;-58
2021/11/12 16:02:56;;;;;;;90.65;52.38;;;5.30;99.90;;;;;;5052362;28;20037;-59
2021/11/12 16:05:30;;;;;;;83.65;47.42;;;5.30;99.90;;;;;;5050917;28;20045;-58
2021/11/12 16:13:01;;;;;;;84.35;50.42;;;5.20;99.90;;;;;;5051173;28;20116;-60
2021/11/12 16:15:46;;;;;;;85.00;48.88;;;5.30;99.90;;;;;;5052674;28;20138;-58
2021/11/12 16:26:01;;;;;;;83.75;46.78;;;5.30;99.90;;;;;;5052269;28;20025;-59
2021/11/12 16:28:32;;;;;;;91.10;50.88;;;5.30;99.90;;;;;;5052449;28;20040;-59
2021/11/12 16:31:01;;;;;;;90.18;49.72;;;5.30;99.90;;;;;;5048797;28;20033;-59
2021/11/12 16:33:28;;;;;;;87.82;48.58;;;5.30;99.90;;;;;;5049779;28;20561;-59
2021/11/12 16:35:57;;;;;;;84.75;48.75;;;5.20;99.90;;;;;;5051082;28;20032;-58
2021/11/12 16:38:26;;;;;;;93.75;49.55;;;5.20;99.90;;;;;;5052509;28;20033;-57
2021/11/12 16:41:16;;;;;;;86.97;49.10;;;5.20;99.90;;;;;;5050998;28;20024;-60
2021/11/12 16:46:46;;;;;;;92.88;50.80;;;5.20;99.90;;;;;;5052350;28;20045;-59
2021/11/12 16:49:08;;;;;;;92.53;49.60;;;5.10;99.90;;;;;;5030994;28;20033;-58
2021/11/12 16:54:18;;;;;;;94.65;50.80;;;5.00;99.90;;;;;;5051055;28;20144;-60
2021/11/12 16:56:56;;;;;;;90.55;48.38;;;5.00;99.90;;;;;;5051077;28;20268;-60
2021/11/12 16:59:32;;;;;;;92.32;49.20;;;4.90;99.90;;;;;;5050188;28;20037;-54
2021/11/12 17:02:21;;;;;;;98.00;47.63;;;4.90;99.90;;;;;;5050866;28;20037;-60
2021/11/12 17:15:17;;;;;;;110.13;53.97;;;4.70;99.90;;;;;;5053690;28;20416;-58
2021/11/12 17:17:55;;;;;;;96.78;50.03;;;4.70;99.90;;;;;;5053129;28;20136;-59
2021/11/12 17:45:01;;;;;;;87.03;46.42;;;4.70;99.90;;;;;;5057370;28;20321;-57
2021/11/12 17:47:28;;;;;;;92.45;47.10;;;4.70;99.90;;;;;;5053952;28;20077;-61
2021/11/12 17:50:03;;;;;;;92.85;48.75;;;4.70;99.90;;;;;;5052146;28;20033;-60
2021/11/12 17:52:50;;;;;;;99.47;49.90;;;4.70;99.90;;;;;;5063315;28;20391;-58
2021/11/12 18:03:31;;;;;;;99.83;52.07;;;4.80;99.90;;;;;;5073537;28;20041;-59
2021/11/12 18:22:00;;;;;;;120.57;53.75;;;4.70;99.90;;;;;;5052915;28;20021;-60
2021/11/12 21:46:02;;;;;;;38.70;23.33;;;3.70;99.90;;;;;;5054706;28;20032;-60
2021/11/12 21:48:30;;;;;;;40.67;23.77;;;3.60;99.90;;;;;;5055677;28;20036;-58
2021/11/12 21:50:58;;;;;;;35.63;23.35;;;3.50;99.90;;;;;;5053521;28;20499;-61
2021/11/12 21:53:25;;;;;;;36.25;24.17;;;3.50;99.90;;;;;;5050429;28;20034;-60
2021/11/12 21:55:52;;;;;;;38.60;25.15;;;3.40;99.90;;;;;;5035205;28;20026;-54
2021/11/12 21:58:19;;;;;;;40.55;23.35;;;3.40;99.90;;;;;;5034888;28;20025;-55
2021/11/12 22:00:47;;;;;;;37.78;24.58;;;3.40;99.90;;;;;;5034953;28;20041;-57
2021/11/12 22:03:17;;;;;;;36.03;24.42;;;3.30;99.90;;;;;;5035349;28;20049;-59
2021/11/12 22:05:42;;;;;;;41.88;25.45;;;3.40;99.90;;;;;;5048605;28;20033;-57